Airfield :
LOGIN :

Register | Disclaimer

   EN    FR    IT 

 










Legend :    VFR   Marginal VFR   IFR   Intensive IFR   Very Intensive IFR
Visi :
Ceiling :
>= 8 km
>= 3000ft
5 to 8 km
1000 to 3000 ft
1500m to 5 km
500 to 1000 ft
800 to 1500m
200 to 500 ft
< 800m
< 200 ft
Symbols :   Thunderstorms  Fog  Heavy snow  Heavy precipitations  Wind > 20 kt
SIGMETs :     Misc.  Thunderstorms  Icing  Turbulence  Mountain Waves  Volcanic Ashes







- Airport Elevation : 302 ft
- IATA code : CGN


EDDK - Cologne Bonn

CURRENT METAR :
  • 190220Z 32004KT 9999 BKN019 BKN055 04/03 Q1015 TEMPO RA BKN008

EXPIRED METARs :
  • 190150Z 30009KT 9999 -RA FEW014 SCT030 BKN050 05/03 Q1015 TEMPO RA BKN008
  • 190120Z 27010KT 9999 SCT011 BKN043 05/03 Q1015 TEMPO RA BKN008
  • 190050Z 27007KT 9999 -RA BKN010 BKN016 06/05 Q1015 TEMPO RA BKN008
  • 190020Z 22003KT 9999 FEW010 BKN013 BKN049 05/05 Q1015 TEMPO RA
  • 182350Z 24004KT 210V330 9999 -RA FEW005 BKN015 BKN040 05/05 Q1015 RERA TEMPO RA

TAF AMD TAF EDDK
Valid from the 19 at 00:00 until the 20 at 06:00 UTC


190045Z 1900/2006 28007KT 9999 BKN030
TEMPO 1900/1903 RA BKN003
BECMG 1908/1911 28013KT
TEMPO 1912/1915 28015G25KT SHRA BKN020CB
BECMG 1917/1920 27008KT
No reported NOTAMs for that airfield.



MET'MAP, your aeronautical weather chart ! - Copyright ORBIFLY December 2007 - Disclaimer

ORBIFLY MET'MAP TEAM :

Programming & Development : Alexandra Zaïnal
Concept & Development : Baudouin d'Aumeries
Co-Development & Prog : Marc-Olivier Méhu
Technical & hardware support : Manuel Goepfert

Contact : metmap@orbifly.com




SOURCES & CREDITS :

   NOAA